Time;durP1;ratioP1;P1;durP2;ratioP2;P2;SDS_P1;SDS_P2;PMS_P1;PMS_P2;Temp;Humidity;BMP_temperature;BMP_pressure;BME280_temperature;BME280_humidity;BME280_pressure;Samples;Min_cycle;Max_cycle;Signal;HPM_P1;HPM_P2
2023/12/10 00:00:17;;;;;;;1.50;1.20;;;22.80;58.30;;;;;;5076225;28;21007;-87
2023/12/10 00:02:44;;;;;;;1.30;1.00;;;22.80;58.30;;;;;;5076219;28;20493;-87
2023/12/10 00:05:11;;;;;;;1.60;1.03;;;22.80;58.30;;;;;;5076470;28;20571;-87
2023/12/10 00:07:38;;;;;;;1.73;1.00;;;22.80;58.30;;;;;;5076089;28;20491;-87
2023/12/10 00:10:07;;;;;;;1.60;1.20;;;22.80;58.40;;;;;;5076000;28;20527;-87
2023/12/10 00:12:34;;;;;;;1.40;0.90;;;22.70;58.30;;;;;;5076309;28;20519;-87
2023/12/10 00:15:01;;;;;;;1.30;1.03;;;22.70;58.30;;;;;;5076161;28;20433;-87
2023/12/10 00:17:28;;;;;;;1.50;0.90;;;22.70;58.30;;;;;;5075953;28;20448;-87
2023/12/10 00:19:55;;;;;;;1.97;1.07;;;22.70;58.90;;;;;;5076087;28;20519;-87
2023/12/10 00:22:23;;;;;;;1.27;0.90;;;22.70;58.30;;;;;;5075499;28;20497;-86
2023/12/10 00:24:49;;;;;;;2.00;1.30;;;22.70;58.20;;;;;;5075660;28;20574;-87
2023/12/10 00:27:18;;;;;;;1.10;0.90;;;22.70;58.30;;;;;;5076321;28;20528;-87
2023/12/10 00:29:44;;;;;;;1.63;1.10;;;22.70;58.30;;;;;;5075759;28;20531;-87
2023/12/10 00:32:11;;;;;;;2.67;1.50;;;22.70;58.40;;;;;;5075738;28;20519;-87
2023/12/10 00:34:38;;;;;;;1.60;1.13;;;22.70;58.30;;;;;;5075730;28;20494;-87
2023/12/10 00:37:05;;;;;;;1.93;1.10;;;22.60;58.30;;;;;;5075544;28;20488;-87
2023/12/10 00:39:32;;;;;;;1.87;1.13;;;22.60;58.30;;;;;;5075729;28;20607;-87
2023/12/10 00:41:59;;;;;;;1.63;1.00;;;22.60;58.30;;;;;;5075697;28;20990;-87
2023/12/10 00:44:27;;;;;;;1.47;1.00;;;22.60;58.30;;;;;;5075417;28;20935;-87
2023/12/10 00:46:54;;;;;;;2.00;1.13;;;22.60;58.30;;;;;;5075300;28;20543;-87
2023/12/10 00:49:21;;;;;;;1.60;0.90;;;22.60;58.30;;;;;;5075816;28;20515;-87
2023/12/10 00:51:48;;;;;;;1.30;0.90;;;22.60;58.30;;;;;;5075513;28;20441;-87
2023/12/10 00:54:15;;;;;;;2.10;1.07;;;22.60;58.30;;;;;;5075722;28;20555;-87
2023/12/10 00:56:42;;;;;;;1.67;1.10;;;22.60;58.30;;;;;;5075211;28;20868;-87
2023/12/10 00:59:09;;;;;;;1.40;0.93;;;22.60;58.30;;;;;;5075181;28;20429;-87
2023/12/10 01:01:37;;;;;;;1.30;0.90;;;22.50;58.30;;;;;;5075122;28;20539;-87
2023/12/10 01:04:04;;;;;;;1.47;0.90;;;22.50;58.30;;;;;;5075280;28;20897;-87
2023/12/10 01:06:31;;;;;;;2.03;1.10;;;22.50;58.30;;;;;;5075460;28;20954;-87
2023/12/10 01:08:58;;;;;;;1.30;1.07;;;22.50;58.30;;;;;;5073729;28;20477;-87
2023/12/10 01:11:25;;;;;;;1.30;1.10;;;22.50;58.30;;;;;;5093399;28;20444;-86
2023/12/10 01:13:52;;;;;;;1.87;1.00;;;22.50;58.30;;;;;;5081645;28;20444;-87
2023/12/10 01:16:19;;;;;;;3.40;1.10;;;22.50;58.30;;;;;;5075114;28;20432;-87
2023/12/10 01:18:47;;;;;;;1.30;1.00;;;22.50;58.30;;;;;;5074778;28;20962;-87
2023/12/10 01:21:14;;;;;;;2.13;1.10;;;22.50;58.30;;;;;;5074798;28;20440;-87
2023/12/10 01:23:41;;;;;;;2.00;1.10;;;22.50;58.30;;;;;;5074531;28;20436;-87
2023/12/10 01:26:12;;;;;;;1.40;1.07;;;22.50;58.30;;;;;;5074895;28;20523;-87
2023/12/10 01:28:39;;;;;;;2.03;1.27;;;22.50;58.30;;;;;;5074899;28;20896;-87
2023/12/10 01:31:06;;;;;;;1.63;0.97;;;22.40;58.30;;;;;;5074555;28;20502;-87
2023/12/10 01:33:33;;;;;;;1.20;0.80;;;22.40;58.30;;;;;;5074712;28;20519;-87
2023/12/10 01:36:02;;;;;;;1.90;1.40;;;22.40;58.30;;;;;;5074666;28;20468;-87
2023/12/10 01:38:28;;;;;;;1.10;0.90;;;22.40;58.40;;;;;;5074239;28;20553;-87
2023/12/10 01:40:55;;;;;;;2.43;1.30;;;22.40;58.90;;;;;;5074407;28;20527;-87
2023/12/10 01:43:22;;;;;;;1.50;0.90;;;22.40;58.40;;;;;;5074310;28;20528;-87
2023/12/10 01:45:52;;;;;;;1.20;1.00;;;22.40;58.40;;;;;;5074397;28;20480;-87
2023/12/10 01:48:21;;;;;;;1.93;1.00;;;22.40;58.30;;;;;;5074093;28;20563;-87
2023/12/10 01:50:48;;;;;;;1.60;1.10;;;22.40;58.40;;;;;;5074362;28;20535;-87
2023/12/10 01:53:17;;;;;;;2.03;1.40;;;22.40;58.30;;;;;;5074195;28;20519;-87
2023/12/10 01:55:45;;;;;;;1.70;1.20;;;22.40;58.30;;;;;;5074232;28;20539;-87
2023/12/10 01:58:13;;;;;;;1.50;1.03;;;22.40;58.30;;;;;;5074023;28;21025;-87
2023/12/10 02:00:40;;;;;;;1.60;1.20;;;22.40;58.20;;;;;;5074225;28;20468;-87
2023/12/10 02:03:08;;;;;;;1.87;1.20;;;22.50;58.30;;;;;;5073807;28;20506;-87
2023/12/10 02:05:35;;;;;;;3.00;1.20;;;22.40;58.20;;;;;;5073896;28;21080;-88
2023/12/10 02:08:02;;;;;;;1.93;1.20;;;22.50;58.30;;;;;;5073681;28;20890;-87
2023/12/10 02:10:31;;;;;;;1.63;1.00;;;22.50;58.30;;;;;;5073972;28;20437;-87
2023/12/10 02:12:58;;;;;;;1.70;1.50;;;22.50;58.30;;;;;;5074038;28;20531;-87
2023/12/10 02:15:28;;;;;;;1.30;0.90;;;22.50;58.30;;;;;;5073825;28;20788;-87
2023/12/10 02:17:55;;;;;;;1.60;1.00;;;22.50;58.20;;;;;;5073853;28;20816;-87
2023/12/10 02:20:22;;;;;;;2.80;1.30;;;22.50;58.20;;;;;;5073252;28;20535;-87
2023/12/10 02:22:56;;;;;;;2.07;0.90;;;22.50;58.20;;;;;;5073721;28;20846;-87
2023/12/10 02:25:31;;;;;;;2.40;1.13;;;22.50;58.20;;;;;;5073777;28;20515;-87
2023/12/10 02:27:59;;;;;;;2.33;1.33;;;22.50;58.20;;;;;;5073677;28;20518;-88
2023/12/10 02:30:26;;;;;;;1.87;1.40;;;22.50;58.20;;;;;;5073532;28;20475;-87
2023/12/10 02:32:53;;;;;;;2.00;1.20;;;22.50;58.20;;;;;;5073598;28;20475;-88
2023/12/10 02:35:21;;;;;;;1.97;1.20;;;22.50;58.20;;;;;;5073565;28;20471;-88
2023/12/10 02:37:48;;;;;;;1.57;1.10;;;22.50;58.20;;;;;;5073323;28;20534;-88
2023/12/10 02:40:16;;;;;;;1.93;1.30;;;22.50;58.20;;;;;;5073406;28;20467;-88
2023/12/10 02:42:45;;;;;;;1.87;0.90;;;22.50;58.20;;;;;;5073630;28;20467;-88
2023/12/10 02:45:12;;;;;;;2.37;1.10;;;22.50;58.20;;;;;;5073454;28;20819;-88
2023/12/10 02:47:39;;;;;;;2.03;1.50;;;22.50;58.20;;;;;;5073521;28;20563;-87
2023/12/10 02:50:07;;;;;;;1.30;1.07;;;22.50;58.10;;;;;;5073358;28;20472;-88
2023/12/10 02:52:36;;;;;;;2.20;1.20;;;22.50;58.20;;;;;;5073601;28;20471;-88
2023/12/10 02:55:03;;;;;;;2.33;1.40;;;22.50;58.20;;;;;;5073248;28;20471;-88
2023/12/10 02:57:30;;;;;;;2.17;1.27;;;22.50;58.10;;;;;;5073521;28;20840;-87
2023/12/10 02:59:58;;;;;;;1.60;1.10;;;22.50;58.10;;;;;;5073213;28;20424;-88
2023/12/10 03:02:25;;;;;;;1.60;1.20;;;22.50;58.10;;;;;;5073493;28;20873;-88
2023/12/10 03:04:52;;;;;;;1.83;1.00;;;22.50;58.10;;;;;;5073246;28;20586;-88
2023/12/10 03:07:19;;;;;;;1.77;1.13;;;22.50;58.10;;;;;;5073259;28;20492;-88
2023/12/10 03:09:46;;;;;;;1.83;0.97;;;22.50;58.10;;;;;;5073449;28;20523;-88
2023/12/10 03:12:13;;;;;;;1.83;1.30;;;22.50;58.10;;;;;;5073336;28;20480;-85
2023/12/10 03:14:41;;;;;;;2.80;1.53;;;22.50;58.00;;;;;;5073305;28;20468;-88
2023/12/10 03:17:09;;;;;;;1.80;1.20;;;22.50;58.10;;;;;;5073283;28;20528;-88
2023/12/10 03:19:38;;;;;;;1.97;1.30;;;22.50;58.10;;;;;;5072961;28;20436;-88
2023/12/10 03:22:05;;;;;;;1.77;1.30;;;22.50;58.10;;;;;;5073245;28;20448;-88
2023/12/10 03:24:31;;;;;;;1.87;1.57;;;22.50;58.10;;;;;;5073186;28;20527;-88
2023/12/10 03:26:58;;;;;;;1.30;1.00;;;22.50;58.00;;;;;;5087039;28;20467;-87
2023/12/10 03:29:25;;;;;;;2.47;1.20;;;22.50;58.10;;;;;;5081987;28;20871;-88
2023/12/10 03:31:52;;;;;;;1.83;1.10;;;22.50;58.10;;;;;;5072926;28;20531;-88
2023/12/10 03:34:20;;;;;;;2.00;1.10;;;22.50;58.60;;;;;;5077041;28;20491;-88
2023/12/10 03:36:47;;;;;;;1.60;1.00;;;22.50;58.00;;;;;;5076845;28;20488;-88
2023/12/10 03:39:14;;;;;;;1.40;1.20;;;22.50;58.10;;;;;;5076681;28;20480;-88
2023/12/10 03:41:41;;;;;;;1.83;1.43;;;22.50;58.00;;;;;;5076849;28;20624;-88
2023/12/10 03:44:08;;;;;;;1.40;1.07;;;22.50;58.00;;;;;;5068819;28;20469;-88
2023/12/10 03:46:35;;;;;;;2.40;1.47;;;22.50;58.00;;;;;;5056278;28;20473;-88
2023/12/10 03:49:01;;;;;;;1.50;1.00;;;22.50;58.00;;;;;;5056176;28;20472;-88
2023/12/10 03:51:29;;;;;;;1.80;1.17;;;22.50;58.00;;;;;;5056653;28;20513;-88
2023/12/10 03:53:56;;;;;;;1.60;1.20;;;22.50;58.00;;;;;;5056238;28;20471;-88
2023/12/10 03:56:23;;;;;;;1.37;1.10;;;22.50;58.00;;;;;;5056638;28;20465;-88
2023/12/10 03:58:50;;;;;;;1.73;1.20;;;22.50;58.00;;;;;;5056620;28;20527;-88
2023/12/10 04:01:17;;;;;;;2.30;1.20;;;22.50;58.00;;;;;;5056497;28;20521;-88
2023/12/10 04:03:44;;;;;;;2.53;1.33;;;22.50;58.00;;;;;;5056566;28;20789;-88
2023/12/10 04:06:11;;;;;;;1.43;0.87;;;22.50;58.00;;;;;;5056324;28;20487;-88
2023/12/10 04:08:39;;;;;;;1.83;1.33;;;22.50;58.00;;;;;;5056300;28;20518;-88
2023/12/10 04:11:06;;;;;;;2.37;1.10;;;22.50;58.00;;;;;;5056216;28;20516;-88
2023/12/10 04:13:33;;;;;;;2.50;1.13;;;22.50;58.00;;;;;;5056164;28;20476;-87
2023/12/10 04:16:01;;;;;;;1.87;1.10;;;22.50;58.00;;;;;;5056399;28;20533;-87
2023/12/10 04:18:28;;;;;;;2.27;1.40;;;22.50;58.10;;;;;;5056112;28;20437;-88
2023/12/10 04:20:55;;;;;;;1.83;1.33;;;22.40;58.00;;;;;;5056900;28;20537;-88
2023/12/10 04:23:22;;;;;;;1.73;1.23;;;22.40;58.00;;;;;;5056177;28;20472;-88
2023/12/10 04:25:50;;;;;;;1.20;1.00;;;22.40;58.60;;;;;;5057033;28;20516;-87
2023/12/10 04:28:17;;;;;;;1.63;1.20;;;22.40;58.00;;;;;;5055749;28;20537;-87
2023/12/10 04:30:44;;;;;;;1.50;1.13;;;22.40;58.10;;;;;;5056002;28;20532;-88
2023/12/10 04:33:10;;;;;;;1.40;0.90;;;22.40;58.10;;;;;;5056005;28;20524;-88
2023/12/10 04:35:37;;;;;;;2.00;1.00;;;22.40;58.00;;;;;;5056088;28;20864;-87
2023/12/10 04:38:06;;;;;;;2.80;1.20;;;22.40;58.10;;;;;;5055522;28;21059;-87
2023/12/10 04:40:33;;;;;;;2.00;1.00;;;22.40;58.00;;;;;;5055928;28;20514;-87
2023/12/10 04:43:01;;;;;;;1.90;1.10;;;22.40;58.10;;;;;;5055457;28;20528;-87
2023/12/10 04:45:28;;;;;;;1.53;1.17;;;22.40;58.10;;;;;;5055392;28;20520;-88
2023/12/10 04:47:55;;;;;;;1.20;0.90;;;22.40;58.00;;;;;;5055273;28;20473;-87
2023/12/10 04:50:22;;;;;;;1.60;1.10;;;22.40;58.10;;;;;;5055210;28;20461;-87
2023/12/10 04:52:48;;;;;;;1.93;1.20;;;22.40;58.10;;;;;;5055540;28;20433;-87
2023/12/10 04:55:14;;;;;;;2.13;1.10;;;22.40;58.10;;;;;;5055464;28;20524;-87
2023/12/10 04:57:41;;;;;;;1.60;1.10;;;22.40;58.10;;;;;;5055136;28;20218;-87
2023/12/10 05:00:11;;;;;;;2.13;1.20;;;22.40;58.00;;;;;;5055401;28;20466;-87
2023/12/10 05:02:37;;;;;;;2.30;1.57;;;22.40;58.10;;;;;;5055359;28;20444;-87
2023/12/10 05:05:05;;;;;;;1.60;1.30;;;22.40;58.10;;;;;;5055254;28;20568;-87
2023/12/10 05:07:32;;;;;;;1.80;1.23;;;22.40;58.00;;;;;;5055013;28;20522;-87
2023/12/10 05:09:59;;;;;;;1.90;1.17;;;22.50;58.10;;;;;;5055146;28;20477;-87
2023/12/10 05:12:26;;;;;;;2.10;1.43;;;22.50;58.10;;;;;;5054891;28;20470;-87
2023/12/10 05:14:53;;;;;;;2.13;1.10;;;22.50;58.10;;;;;;5055223;28;20532;-87
2023/12/10 05:17:21;;;;;;;2.20;1.33;;;22.50;58.10;;;;;;5055069;28;20472;-87
2023/12/10 05:19:48;;;;;;;1.90;1.23;;;22.50;58.00;;;;;;5055306;28;20434;-87
2023/12/10 05:22:15;;;;;;;1.20;0.90;;;22.50;58.00;;;;;;5054850;28;20518;-87
2023/12/10 05:24:42;;;;;;;1.90;1.00;;;22.50;58.10;;;;;;5054781;28;20843;-87
2023/12/10 05:27:10;;;;;;;1.87;1.30;;;22.50;58.00;;;;;;5054880;28;20516;-87
2023/12/10 05:29:38;;;;;;;1.83;0.93;;;22.50;58.00;;;;;;5054694;28;20920;-87
2023/12/10 05:32:05;;;;;;;1.87;1.10;;;22.50;58.00;;;;;;5054867;28;20519;-87
2023/12/10 05:34:33;;;;;;;1.30;1.00;;;22.50;58.00;;;;;;5054713;28;20520;-87
2023/12/10 05:37:00;;;;;;;2.73;1.27;;;22.50;58.50;;;;;;5054423;28;20987;-88
2023/12/10 05:39:27;;;;;;;1.90;1.30;;;22.50;57.90;;;;;;5070284;28;20520;-87
2023/12/10 05:41:54;;;;;;;1.87;1.10;;;22.50;57.90;;;;;;5076980;28;20482;-88
2023/12/10 05:44:21;;;;;;;1.60;0.97;;;22.60;58.00;;;;;;5074644;28;20892;-87
2023/12/10 05:46:48;;;;;;;1.57;1.20;;;22.50;57.90;;;;;;5074313;28;20918;-87
2023/12/10 05:49:15;;;;;;;1.40;1.00;;;22.60;58.00;;;;;;5074545;28;20505;-87
2023/12/10 05:51:43;;;;;;;1.30;1.03;;;22.60;58.00;;;;;;5074239;28;20444;-87
2023/12/10 05:54:10;;;;;;;3.23;1.30;;;22.60;57.90;;;;;;5074134;28;20982;-87
2023/12/10 05:56:36;;;;;;;1.63;1.50;;;22.60;57.90;;;;;;5073359;28;20471;-87
2023/12/10 05:59:03;;;;;;;1.57;1.10;;;22.60;57.90;;;;;;5073845;28;20939;-87
2023/12/10 06:01:30;;;;;;;1.40;1.00;;;22.60;57.90;;;;;;5074251;28;20491;-88
2023/12/10 06:03:57;;;;;;;2.40;1.17;;;22.60;57.90;;;;;;5073878;28;20816;-87
2023/12/10 06:06:24;;;;;;;1.10;0.90;;;22.60;57.90;;;;;;5074057;28;21002;-88
2023/12/10 06:08:52;;;;;;;1.90;1.00;;;22.60;57.90;;;;;;5074108;28;20535;-87
2023/12/10 06:11:19;;;;;;;1.70;1.40;;;22.60;58.00;;;;;;5073936;28;20528;-87
2023/12/10 06:13:46;;;;;;;1.53;1.20;;;22.60;58.50;;;;;;5074109;28;20536;-87
2023/12/10 06:16:13;;;;;;;1.70;1.10;;;22.60;58.00;;;;;;5074735;28;20540;-88
2023/12/10 06:18:40;;;;;;;1.93;1.10;;;22.50;57.90;;;;;;5073922;28;20788;-87
2023/12/10 06:21:07;;;;;;;3.10;1.07;;;22.60;58.50;;;;;;5072669;28;20872;-86
2023/12/10 06:23:34;;;;;;;1.30;1.10;;;22.60;57.90;;;;;;5053367;28;20536;-86
2023/12/10 06:26:02;;;;;;;1.40;1.20;;;22.60;57.90;;;;;;5053336;28;21056;-87
2023/12/10 06:28:29;;;;;;;1.57;1.10;;;22.60;57.90;;;;;;5053787;28;20519;-87
2023/12/10 06:30:58;;;;;;;2.57;1.43;;;22.60;57.90;;;;;;5053549;28;20433;-88
2023/12/10 06:33:24;;;;;;;1.63;1.27;;;22.60;57.90;;;;;;5053677;28;20456;-87
2023/12/10 06:35:51;;;;;;;1.23;0.90;;;22.60;57.90;;;;;;5053559;28;20538;-87
2023/12/10 06:38:18;;;;;;;1.60;1.07;;;22.60;57.90;;;;;;5053514;28;20532;-87
2023/12/10 06:40:45;;;;;;;2.10;1.13;;;22.60;57.90;;;;;;5053333;28;20476;-88
2023/12/10 06:43:13;;;;;;;2.00;1.47;;;22.60;57.90;;;;;;5053381;28;20437;-88
2023/12/10 06:45:40;;;;;;;1.63;1.10;;;22.60;57.90;;;;;;5053287;28;20569;-87
2023/12/10 06:48:07;;;;;;;1.30;1.00;;;22.60;57.90;;;;;;5053115;28;20469;-87
2023/12/10 06:50:34;;;;;;;1.60;1.10;;;22.60;57.90;;;;;;5053293;28;20433;-87
2023/12/10 06:53:01;;;;;;;1.47;1.00;;;22.60;57.90;;;;;;5053200;28;20956;-87
2023/12/10 06:55:28;;;;;;;1.70;1.30;;;22.60;57.80;;;;;;5066905;28;20432;-87
2023/12/10 06:57:55;;;;;;;1.50;1.20;;;22.60;57.80;;;;;;5071194;28;20517;-87
2023/12/10 07:00:24;;;;;;;1.20;1.00;;;22.60;57.90;;;;;;5073208;28;20460;-87
2023/12/10 07:02:51;;;;;;;1.23;0.93;;;22.70;57.90;;;;;;5073284;28;20464;-87
2023/12/10 07:05:18;;;;;;;1.73;1.17;;;22.70;57.90;;;;;;5073390;28;20443;-88
2023/12/10 07:07:45;;;;;;;1.40;1.10;;;22.70;57.90;;;;;;5076232;28;20536;-87
2023/12/10 07:10:12;;;;;;;1.20;0.90;;;22.70;57.90;;;;;;5077738;28;20448;-87
2023/12/10 07:12:39;;;;;;;1.57;1.03;;;22.70;57.80;;;;;;5077406;28;20432;-87
2023/12/10 07:15:06;;;;;;;1.60;1.10;;;22.70;57.80;;;;;;5077221;28;20534;-88
2023/12/10 07:17:36;;;;;;;1.40;1.03;;;22.70;57.80;;;;;;5077485;28;20853;-87
2023/12/10 07:20:03;;;;;;;1.50;1.00;;;22.70;57.80;;;;;;5077356;28;20515;-87
2023/12/10 07:22:30;;;;;;;1.57;1.00;;;22.70;57.80;;;;;;5077042;28;20535;-87
2023/12/10 07:24:58;;;;;;;1.50;1.17;;;22.70;58.30;;;;;;5077055;28;20527;-87
2023/12/10 07:27:25;;;;;;;1.53;1.00;;;22.70;57.70;;;;;;5076992;28;20527;-87
2023/12/10 07:29:52;;;;;;;1.40;1.23;;;22.70;58.30;;;;;;5077223;28;20534;-87
2023/12/10 07:32:19;;;;;;;1.43;0.87;;;22.70;57.70;;;;;;5076822;28;20460;-87
2023/12/10 07:34:47;;;;;;;1.33;1.03;;;22.70;57.70;;;;;;5076991;28;20467;-87
2023/12/10 07:37:14;;;;;;;1.83;0.90;;;22.70;57.70;;;;;;5076914;28;20551;-88
2023/12/10 07:39:41;;;;;;;1.87;1.13;;;22.70;57.70;;;;;;5076866;28;20476;-87
2023/12/10 07:42:08;;;;;;;1.40;1.00;;;22.70;57.70;;;;;;5076890;28;20539;-87
2023/12/10 07:44:35;;;;;;;1.60;1.00;;;22.70;57.60;;;;;;5077052;28;20456;-88
2023/12/10 07:47:02;;;;;;;4.70;1.10;;;22.70;57.60;;;;;;5084296;28;20518;-88
2023/12/10 07:49:29;;;;;;;1.73;1.07;;;22.70;57.60;;;;;;5076793;28;20475;-87
2023/12/10 07:51:57;;;;;;;1.40;0.93;;;22.70;57.70;;;;;;5076273;28;20475;-87
2023/12/10 07:54:24;;;;;;;1.97;0.90;;;22.80;57.60;;;;;;5076308;28;20436;-87
2023/12/10 07:56:51;;;;;;;1.90;0.97;;;22.70;57.60;;;;;;5075983;28;20446;-88
2023/12/10 07:59:19;;;;;;;1.50;1.40;;;22.70;57.60;;;;;;5075974;28;20476;-87
2023/12/10 08:01:46;;;;;;;2.83;1.20;;;22.70;57.60;;;;;;5074963;28;20452;-87
2023/12/10 08:04:13;;;;;;;1.60;1.00;;;22.70;57.60;;;;;;5076319;28;20471;-88
2023/12/10 08:06:40;;;;;;;1.40;1.00;;;22.70;57.60;;;;;;5076403;28;20566;-87
2023/12/10 08:09:08;;;;;;;1.50;1.00;;;22.70;57.60;;;;;;5072122;28;20445;-87
2023/12/10 08:11:36;;;;;;;1.37;1.00;;;22.70;57.70;;;;;;5056377;28;20536;-87
2023/12/10 08:14:03;;;;;;;2.30;1.00;;;22.70;57.60;;;;;;5056022;28;20541;-87
2023/12/10 08:16:29;;;;;;;1.60;1.00;;;22.70;57.60;;;;;;5056167;28;20491;-88
2023/12/10 08:18:57;;;;;;;1.97;1.30;;;22.70;57.70;;;;;;5055208;28;20473;-87
2023/12/10 08:21:24;;;;;;;1.40;1.00;;;22.70;57.70;;;;;;5056020;28;20920;-87
2023/12/10 08:23:52;;;;;;;1.23;0.87;;;22.70;57.60;;;;;;5055814;28;20468;-87
2023/12/10 08:26:21;;;;;;;1.30;1.10;;;22.70;57.60;;;;;;5055727;28;20552;-87
2023/12/10 08:28:48;;;;;;;1.70;1.00;;;22.70;57.60;;;;;;5055529;28;20934;-88
2023/12/10 08:31:14;;;;;;;1.97;0.93;;;22.70;57.60;;;;;;5074567;28;20569;-88
2023/12/10 08:33:44;;;;;;;2.07;0.90;;;22.80;57.60;;;;;;5075606;28;20436;-88
2023/12/10 08:36:11;;;;;;;14.30;7.30;;;22.80;58.00;;;;;;5064515;28;20476;-88
2023/12/10 08:38:38;;;;;;;24.93;13.07;;;22.80;57.60;;;;;;5073345;28;20445;-87
2023/12/10 08:41:06;;;;;;;22.13;12.47;;;22.80;57.70;;;;;;5072325;28;20450;-87
2023/12/10 08:43:35;;;;;;;23.67;11.63;;;22.80;57.50;;;;;;5075695;28;20444;-88
2023/12/10 08:46:02;;;;;;;8.30;5.80;;;22.80;57.70;;;;;;5075391;28;20543;-88
2023/12/10 08:48:30;;;;;;;11.57;6.93;;;22.80;57.70;;;;;;5075262;28;20476;-88
2023/12/10 08:50:57;;;;;;;14.90;7.30;;;22.80;57.30;;;;;;5076023;28;20480;-88
2023/12/10 08:53:23;;;;;;;11.27;5.80;;;22.90;57.20;;;;;;5075029;28;20859;-84
2023/12/10 08:55:51;;;;;;;18.00;8.47;;;22.90;57.20;;;;;;5075118;28;20522;-87
2023/12/10 08:58:18;;;;;;;17.00;9.27;;;22.90;57.40;;;;;;5075023;28;20452;-87
2023/12/10 09:00:46;;;;;;;10.67;6.97;;;22.90;57.50;;;;;;5075299;28;20528;-87
2023/12/10 09:03:13;;;;;;;13.97;7.53;;;22.90;57.40;;;;;;5075187;28;20476;-87
2023/12/10 09:05:40;;;;;;;12.23;6.00;;;22.80;57.40;;;;;;5074717;28;20539;-87
2023/12/10 09:08:07;;;;;;;12.03;6.93;;;22.80;57.40;;;;;;5074315;28;20578;-87
2023/12/10 09:10:35;;;;;;;19.07;7.77;;;22.80;57.60;;;;;;5074497;28;20916;-87
2023/12/10 09:13:01;;;;;;;10.03;6.17;;;22.80;57.70;;;;;;5074489;28;20486;-86
2023/12/10 09:15:28;;;;;;;11.10;6.00;;;22.80;58.30;;;;;;5074592;28;20493;-87
2023/12/10 09:17:56;;;;;;;17.83;7.27;;;22.80;57.80;;;;;;5074778;28;20475;-87
2023/12/10 09:20:23;;;;;;;10.23;6.03;;;22.80;57.90;;;;;;5074865;28;20469;-87
2023/12/10 09:22:50;;;;;;;11.20;5.87;;;22.80;57.90;;;;;;5075195;28;20515;-87
2023/12/10 09:25:17;;;;;;;13.43;6.60;;;22.80;58.50;;;;;;5056322;28;20461;-87
2023/12/10 09:27:44;;;;;;;11.10;5.67;;;22.80;58.10;;;;;;5054746;28;20924;-87
2023/12/10 09:30:11;;;;;;;16.90;6.63;;;22.80;58.10;;;;;;5053828;28;20874;-87
2023/12/10 09:32:40;;;;;;;13.50;5.63;;;22.80;58.20;;;;;;5057049;28;20450;-87
2023/12/10 09:35:09;;;;;;;12.07;6.00;;;22.80;58.00;;;;;;5054306;28;20525;-89
2023/12/10 09:37:37;;;;;;;11.13;5.10;;;22.80;58.20;;;;;;5056786;28;20472;-88
2023/12/10 09:40:04;;;;;;;15.97;5.63;;;22.80;58.20;;;;;;5074510;28;20527;-87
2023/12/10 09:42:31;;;;;;;10.00;5.60;;;22.80;58.20;;;;;;5075227;28;20494;-88
2023/12/10 09:44:58;;;;;;;11.43;5.43;;;22.80;58.30;;;;;;5074166;28;20523;-89
2023/12/10 09:47:28;;;;;;;7.43;5.20;;;22.80;58.30;;;;;;5073730;28;21003;-88
2023/12/10 09:49:57;;;;;;;11.13;5.10;;;22.80;58.30;;;;;;5074443;28;20448;-88
2023/12/10 09:52:25;;;;;;;12.73;5.70;;;22.90;58.90;;;;;;5073472;28;20433;-90
2023/12/10 09:54:53;;;;;;;9.13;5.30;;;22.90;58.20;;;;;;5066726;28;20430;-90
2023/12/10 09:57:21;;;;;;;12.23;6.10;;;22.90;58.80;;;;;;5066516;28;20432;-90
2023/12/10 09:59:48;;;;;;;8.63;4.67;;;22.90;58.30;;;;;;5067202;28;20511;-89
2023/12/10 10:02:16;;;;;;;7.73;3.40;;;22.90;58.10;;;;;;5057231;28;20433;-89
2023/12/10 10:04:43;;;;;;;8.23;3.97;;;22.90;56.80;;;;;;5054251;28;20445;-89
2023/12/10 10:07:10;;;;;;;7.37;3.83;;;22.90;56.70;;;;;;5053713;28;20576;-90
2023/12/10 10:09:39;;;;;;;12.00;4.30;;;22.90;57.00;;;;;;5054574;28;20998;-88
2023/12/10 10:12:07;;;;;;;12.00;3.33;;;22.80;57.40;;;;;;5053917;28;20536;-88
2023/12/10 10:14:34;;;;;;;10.00;3.43;;;22.70;56.90;;;;;;5053839;28;20441;-90
2023/12/10 10:17:01;;;;;;;10.73;3.73;;;22.80;57.00;;;;;;5054075;28;20469;-95
2023/12/10 10:19:28;;;;;;;5.60;3.60;;;22.80;57.30;;;;;;5054461;28;20542;-89
2023/12/10 10:21:55;;;;;;;5.97;3.80;;;22.80;57.50;;;;;;5053665;28;21083;-89
2023/12/10 10:24:22;;;;;;;9.00;4.00;;;22.90;57.60;;;;;;5053566;28;20536;-89
2023/12/10 10:26:50;;;;;;;9.60;3.23;;;22.90;57.70;;;;;;5053427;28;20525;-89
2023/12/10 10:29:19;;;;;;;9.60;3.73;;;22.90;57.60;;;;;;5053689;28;20433;-89
2023/12/10 10:31:47;;;;;;;7.93;4.00;;;22.90;57.70;;;;;;5053482;28;20449;-92
2023/12/10 10:34:15;;;;;;;4.63;3.20;;;22.90;57.60;;;;;;5053571;28;20445;-94
2023/12/10 10:36:42;;;;;;;8.60;3.90;;;22.90;57.70;;;;;;5053536;28;20860;-89
2023/12/10 10:39:09;;;;;;;5.63;3.63;;;22.90;57.60;;;;;;5053556;28;20499;-89
2023/12/10 10:41:36;;;;;;;6.37;3.63;;;23.00;57.80;;;;;;5053079;28;20473;-90
2023/12/10 10:44:05;;;;;;;7.30;3.53;;;23.00;57.70;;;;;;5053478;28;20472;-89
2023/12/10 10:46:32;;;;;;;9.00;3.40;;;23.00;57.70;;;;;;5053270;28;20441;-89
2023/12/10 10:49:01;;;;;;;5.00;3.17;;;23.00;57.60;;;;;;5053222;28;20559;-89
2023/12/10 10:51:30;;;;;;;7.57;3.50;;;23.00;57.60;;;;;;5053190;28;20541;-92
2023/12/10 10:53:59;;;;;;;9.33;3.47;;;23.00;57.60;;;;;;5053184;28;20500;-95
2023/12/10 10:56:26;;;;;;;8.97;3.80;;;23.10;57.60;;;;;;5053701;28;20453;-90
2023/12/10 10:58:53;;;;;;;4.53;2.77;;;23.00;57.50;;;;;;5053150;28;20821;-85
2023/12/10 11:01:44;;;;;;;11.97;3.90;;;23.10;57.70;;;;;;5057922;28;20458;-90
2023/12/10 11:04:13;;;;;;;5.40;3.63;;;23.10;57.90;;;;;;5053373;28;20433;-91
2023/12/10 11:06:41;;;;;;;5.13;3.10;;;23.00;57.60;;;;;;5053103;28;20458;-90
2023/12/10 11:09:08;;;;;;;5.93;2.90;;;23.00;57.50;;;;;;5053615;28;20489;-89
2023/12/10 11:11:39;;;;;;;4.40;2.90;;;23.10;57.70;;;;;;5053764;28;20540;-89
2023/12/10 11:14:19;;;;;;;6.13;3.30;;;23.10;57.60;;;;;;5053588;28;20461;-90
2023/12/10 11:16:50;;;;;;;5.27;3.00;;;23.00;57.60;;;;;;5052942;28;20520;-89
2023/12/10 11:19:21;;;;;;;5.50;3.37;;;23.00;57.60;;;;;;5052920;28;20436;-90
2023/12/10 11:21:48;;;;;;;7.87;3.33;;;23.00;57.50;;;;;;5053238;28;20430;-90
2023/12/10 11:24:15;;;;;;;6.00;2.87;;;23.00;57.60;;;;;;5052868;28;20438;-90
2023/12/10 11:26:42;;;;;;;4.50;2.63;;;23.00;58.20;;;;;;5052949;28;20808;-90
2023/12/10 11:29:09;;;;;;;4.97;2.90;;;23.10;57.60;;;;;;5053616;28;20469;-90
2023/12/10 11:31:36;;;;;;;4.13;2.60;;;23.10;57.60;;;;;;5053057;28;20438;-90
2023/12/10 11:34:04;;;;;;;4.97;2.63;;;23.00;57.50;;;;;;5052919;28;20541;-90
2023/12/10 11:36:31;;;;;;;4.17;2.90;;;23.10;58.40;;;;;;5052517;28;20560;-86
2023/12/10 11:38:58;;;;;;;4.80;2.90;;;23.10;57.70;;;;;;5052862;28;20950;-89
2023/12/10 11:41:26;;;;;;;4.43;2.60;;;23.10;57.70;;;;;;5052888;28;20478;-90
2023/12/10 11:43:54;;;;;;;4.47;2.50;;;23.10;57.60;;;;;;5052641;28;20484;-89
2023/12/10 11:46:21;;;;;;;4.50;2.57;;;23.10;57.60;;;;;;5052941;28;20520;-89
2023/12/10 11:48:48;;;;;;;6.70;2.87;;;23.10;57.70;;;;;;5052955;28;20501;-89
2023/12/10 11:51:18;;;;;;;3.90;2.30;;;23.10;58.10;;;;;;5052890;28;20528;-89
2023/12/10 11:53:46;;;;;;;4.40;2.23;;;23.20;57.50;;;;;;5054236;28;20552;-89
2023/12/10 11:56:14;;;;;;;5.50;2.80;;;23.20;57.50;;;;;;5056681;28;20882;-89
2023/12/10 11:58:45;;;;;;;4.67;2.40;;;23.20;57.50;;;;;;5056373;28;20485;-90
2023/12/10 12:01:12;;;;;;;5.67;2.07;;;23.20;57.40;;;;;;5056310;28;20469;-90
2023/12/10 12:03:39;;;;;;;2.73;2.33;;;23.20;57.40;;;;;;5056476;28;20823;-89
2023/12/10 12:06:07;;;;;;;4.67;2.40;;;23.20;58.00;;;;;;5056492;28;20547;-89
2023/12/10 12:08:35;;;;;;;7.63;2.10;;;23.20;57.40;;;;;;5056682;28;20576;-89
2023/12/10 12:11:03;;;;;;;3.27;2.20;;;23.20;58.00;;;;;;5075504;28;20430;-89
2023/12/10 12:13:30;;;;;;;5.80;2.80;;;23.20;57.50;;;;;;5056441;28;20472;-89
2023/12/10 12:15:57;;;;;;;5.97;2.43;;;23.20;57.20;;;;;;5056392;28;20948;-90
2023/12/10 12:18:25;;;;;;;4.00;2.00;;;23.20;57.30;;;;;;5056225;28;20448;-89
2023/12/10 12:20:52;;;;;;;3.33;1.73;;;23.20;57.30;;;;;;5055819;28;20445;-89
2023/12/10 12:23:19;;;;;;;3.57;2.93;;;23.20;57.30;;;;;;5056156;28;20434;-89
2023/12/10 12:25:47;;;;;;;4.33;2.40;;;23.20;57.30;;;;;;5055856;28;20480;-89
2023/12/10 12:28:14;;;;;;;2.93;2.30;;;23.20;57.30;;;;;;5055669;28;20859;-90
2023/12/10 12:30:41;;;;;;;3.83;2.33;;;23.20;57.40;;;;;;5056669;28;20477;-89
2023/12/10 12:33:08;;;;;;;3.73;1.93;;;23.20;57.40;;;;;;5055987;28;20488;-90
2023/12/10 12:35:35;;;;;;;2.30;2.00;;;23.20;57.40;;;;;;5055763;28;20536;-90
2023/12/10 12:38:02;;;;;;;5.23;2.33;;;23.20;57.40;;;;;;5055791;28;20469;-89
2023/12/10 12:40:29;;;;;;;6.50;2.20;;;23.20;57.40;;;;;;5055880;28;20452;-90
2023/12/10 12:42:57;;;;;;;2.40;2.00;;;23.20;57.40;;;;;;5055749;28;20491;-89
2023/12/10 12:45:24;;;;;;;2.87;2.00;;;23.20;57.30;;;;;;5055549;28;21006;-89